sensor_id;sensor_type;location;lat;lon;timestamp;P1;durP1;ratioP1;P2;durP2;ratioP2
5688;SDS011;2869;50.432;8.680;2023-03-23T00:01:57;2.93;;;2.60;;
5688;SDS011;2869;50.432;8.680;2023-03-23T00:04:24;2.63;;;2.43;;
5688;SDS011;2869;50.432;8.680;2023-03-23T00:06:52;3.87;;;2.10;;
5688;SDS011;2869;50.432;8.680;2023-03-23T00:09:18;5.53;;;2.43;;
5688;SDS011;2869;50.432;8.680;2023-03-23T00:11:50;2.20;;;2.00;;
5688;SDS011;2869;50.432;8.680;2023-03-23T00:14:21;2.40;;;2.00;;
5688;SDS011;2869;50.432;8.680;2023-03-23T00:16:49;2.20;;;1.97;;
5688;SDS011;2869;50.432;8.680;2023-03-23T00:19:16;2.10;;;1.90;;
5688;SDS011;2869;50.432;8.680;2023-03-23T00:21:45;2.93;;;2.00;;
5688;SDS011;2869;50.432;8.680;2023-03-23T00:24:12;7.63;;;2.60;;
5688;SDS011;2869;50.432;8.680;2023-03-23T00:26:42;2.43;;;2.03;;
5688;SDS011;2869;50.432;8.680;2023-03-23T00:29:13;2.67;;;2.47;;
5688;SDS011;2869;50.432;8.680;2023-03-23T00:31:41;4.00;;;2.10;;
5688;SDS011;2869;50.432;8.680;2023-03-23T00:34:11;2.27;;;2.10;;
5688;SDS011;2869;50.432;8.680;2023-03-23T00:36:43;3.40;;;2.30;;
5688;SDS011;2869;50.432;8.680;2023-03-23T00:39:10;3.70;;;2.60;;
5688;SDS011;2869;50.432;8.680;2023-03-23T00:41:36;2.30;;;2.10;;
5688;SDS011;2869;50.432;8.680;2023-03-23T00:44:03;3.03;;;2.27;;
5688;SDS011;2869;50.432;8.680;2023-03-23T00:46:31;3.13;;;1.90;;
5688;SDS011;2869;50.432;8.680;2023-03-23T00:48:58;4.23;;;2.30;;
5688;SDS011;2869;50.432;8.680;2023-03-23T00:51:25;3.43;;;2.13;;
5688;SDS011;2869;50.432;8.680;2023-03-23T00:53:51;2.20;;;2.00;;
5688;SDS011;2869;50.432;8.680;2023-03-23T00:56:18;9.53;;;2.03;;
5688;SDS011;2869;50.432;8.680;2023-03-23T00:58:45;2.53;;;2.30;;
5688;SDS011;2869;50.432;8.680;2023-03-23T01:01:11;2.33;;;1.90;;
5688;SDS011;2869;50.432;8.680;2023-03-23T01:03:39;2.30;;;1.97;;
5688;SDS011;2869;50.432;8.680;2023-03-23T01:06:07;2.17;;;2.00;;
5688;SDS011;2869;50.432;8.680;2023-03-23T01:08:37;2.23;;;1.90;;
5688;SDS011;2869;50.432;8.680;2023-03-23T01:11:10;3.10;;;1.83;;
5688;SDS011;2869;50.432;8.680;2023-03-23T01:13:38;4.00;;;1.83;;
5688;SDS011;2869;50.432;8.680;2023-03-23T01:16:05;2.53;;;1.90;;
5688;SDS011;2869;50.432;8.680;2023-03-23T01:18:32;6.77;;;2.10;;
5688;SDS011;2869;50.432;8.680;2023-03-23T01:21:04;2.13;;;1.90;;
5688;SDS011;2869;50.432;8.680;2023-03-23T01:23:31;5.33;;;2.13;;
5688;SDS011;2869;50.432;8.680;2023-03-23T01:26:01;2.97;;;1.83;;
5688;SDS011;2869;50.432;8.680;2023-03-23T01:28:29;4.43;;;1.87;;
5688;SDS011;2869;50.432;8.680;2023-03-23T01:30:58;2.67;;;2.00;;
5688;SDS011;2869;50.432;8.680;2023-03-23T01:33:25;2.27;;;2.00;;
5688;SDS011;2869;50.432;8.680;2023-03-23T01:35:52;2.40;;;2.10;;
5688;SDS011;2869;50.432;8.680;2023-03-23T01:38:20;3.43;;;2.50;;
5688;SDS011;2869;50.432;8.680;2023-03-23T01:40:47;3.00;;;2.30;;
5688;SDS011;2869;50.432;8.680;2023-03-23T01:43:14;4.33;;;2.57;;
5688;SDS011;2869;50.432;8.680;2023-03-23T01:45:41;4.60;;;2.23;;
5688;SDS011;2869;50.432;8.680;2023-03-23T01:48:09;5.20;;;2.60;;
5688;SDS011;2869;50.432;8.680;2023-03-23T01:50:43;2.40;;;2.20;;
5688;SDS011;2869;50.432;8.680;2023-03-23T01:53:16;2.70;;;2.50;;
5688;SDS011;2869;50.432;8.680;2023-03-23T01:55:45;5.30;;;2.10;;
5688;SDS011;2869;50.432;8.680;2023-03-23T01:58:13;3.10;;;2.20;;
5688;SDS011;2869;50.432;8.680;2023-03-23T02:00:43;2.40;;;2.30;;
5688;SDS011;2869;50.432;8.680;2023-03-23T02:03:10;2.33;;;2.17;;
5688;SDS011;2869;50.432;8.680;2023-03-23T02:05:41;2.60;;;2.40;;
5688;SDS011;2869;50.432;8.680;2023-03-23T02:08:09;4.10;;;2.40;;
5688;SDS011;2869;50.432;8.680;2023-03-23T02:10:38;6.73;;;2.43;;
5688;SDS011;2869;50.432;8.680;2023-03-23T02:13:07;4.57;;;2.40;;
5688;SDS011;2869;50.432;8.680;2023-03-23T02:15:37;2.70;;;2.50;;
5688;SDS011;2869;50.432;8.680;2023-03-23T02:18:13;2.80;;;2.43;;
5688;SDS011;2869;50.432;8.680;2023-03-23T02:21:01;2.43;;;2.23;;
5688;SDS011;2869;50.432;8.680;2023-03-23T02:26:56;2.40;;;2.20;;
5688;SDS011;2869;50.432;8.680;2023-03-23T02:29:48;5.20;;;3.13;;
5688;SDS011;2869;50.432;8.680;2023-03-23T02:32:31;2.63;;;2.37;;
5688;SDS011;2869;50.432;8.680;2023-03-23T02:35:19;2.73;;;2.23;;
5688;SDS011;2869;50.432;8.680;2023-03-23T02:37:48;3.07;;;2.30;;
5688;SDS011;2869;50.432;8.680;2023-03-23T02:40:19;2.40;;;2.20;;
5688;SDS011;2869;50.432;8.680;2023-03-23T02:42:49;3.50;;;2.33;;
5688;SDS011;2869;50.432;8.680;2023-03-23T02:45:18;2.83;;;2.00;;
5688;SDS011;2869;50.432;8.680;2023-03-23T02:47:46;6.10;;;2.30;;
5688;SDS011;2869;50.432;8.680;2023-03-23T02:50:16;2.30;;;2.10;;
5688;SDS011;2869;50.432;8.680;2023-03-23T02:52:47;2.80;;;2.60;;
5688;SDS011;2869;50.432;8.680;2023-03-23T02:55:15;2.67;;;2.00;;
5688;SDS011;2869;50.432;8.680;2023-03-23T02:57:45;2.30;;;2.10;;
5688;SDS011;2869;50.432;8.680;2023-03-23T03:00:13;4.53;;;2.20;;
5688;SDS011;2869;50.432;8.680;2023-03-23T03:02:41;5.83;;;1.90;;
5688;SDS011;2869;50.432;8.680;2023-03-23T03:05:12;5.10;;;1.97;;
5688;SDS011;2869;50.432;8.680;2023-03-23T03:07:55;2.73;;;2.07;;
5688;SDS011;2869;50.432;8.680;2023-03-23T03:10:27;1.87;;;1.67;;
5688;SDS011;2869;50.432;8.680;2023-03-23T03:12:59;3.07;;;2.00;;
5688;SDS011;2869;50.432;8.680;2023-03-23T03:15:31;2.63;;;2.03;;
5688;SDS011;2869;50.432;8.680;2023-03-23T03:18:05;2.60;;;1.80;;
5688;SDS011;2869;50.432;8.680;2023-03-23T03:20:40;2.00;;;1.90;;
5688;SDS011;2869;50.432;8.680;2023-03-23T03:23:12;2.30;;;2.10;;
5688;SDS011;2869;50.432;8.680;2023-03-23T03:25:41;2.70;;;1.97;;
5688;SDS011;2869;50.432;8.680;2023-03-23T03:28:12;2.00;;;1.90;;
5688;SDS011;2869;50.432;8.680;2023-03-23T03:30:40;1.80;;;1.70;;
5688;SDS011;2869;50.432;8.680;2023-03-23T03:33:09;2.60;;;2.07;;
5688;SDS011;2869;50.432;8.680;2023-03-23T03:35:39;2.50;;;2.30;;
5688;SDS011;2869;50.432;8.680;2023-03-23T03:38:08;2.90;;;2.40;;
5688;SDS011;2869;50.432;8.680;2023-03-23T03:40:37;2.00;;;1.90;;
5688;SDS011;2869;50.432;8.680;2023-03-23T03:43:04;4.07;;;2.30;;
5688;SDS011;2869;50.432;8.680;2023-03-23T03:45:31;7.93;;;2.30;;
5688;SDS011;2869;50.432;8.680;2023-03-23T03:47:58;3.40;;;2.10;;
5688;SDS011;2869;50.432;8.680;2023-03-23T03:50:25;2.50;;;2.30;;
5688;SDS011;2869;50.432;8.680;2023-03-23T03:52:53;2.77;;;2.40;;
5688;SDS011;2869;50.432;8.680;2023-03-23T03:55:20;2.50;;;2.30;;
5688;SDS011;2869;50.432;8.680;2023-03-23T03:57:47;2.80;;;2.60;;
5688;SDS011;2869;50.432;8.680;2023-03-23T04:00:14;2.27;;;2.17;;
5688;SDS011;2869;50.432;8.680;2023-03-23T04:02:42;3.40;;;2.60;;
5688;SDS011;2869;50.432;8.680;2023-03-23T04:05:12;3.03;;;2.30;;
5688;SDS011;2869;50.432;8.680;2023-03-23T04:07:39;7.30;;;2.37;;
5688;SDS011;2869;50.432;8.680;2023-03-23T04:10:09;5.77;;;2.13;;
5688;SDS011;2869;50.432;8.680;2023-03-23T04:12:38;2.47;;;2.27;;
5688;SDS011;2869;50.432;8.680;2023-03-23T04:15:05;3.17;;;2.10;;
5688;SDS011;2869;50.432;8.680;2023-03-23T04:17:33;2.30;;;2.20;;
5688;SDS011;2869;50.432;8.680;2023-03-23T04:20:00;3.67;;;2.40;;
5688;SDS011;2869;50.432;8.680;2023-03-23T04:22:37;7.43;;;2.67;;
5688;SDS011;2869;50.432;8.680;2023-03-23T04:25:04;6.20;;;2.97;;
5688;SDS011;2869;50.432;8.680;2023-03-23T04:27:33;2.70;;;2.50;;
5688;SDS011;2869;50.432;8.680;2023-03-23T04:30:01;3.40;;;2.90;;
5688;SDS011;2869;50.432;8.680;2023-03-23T04:32:28;2.90;;;2.70;;
5688;SDS011;2869;50.432;8.680;2023-03-23T04:34:55;3.00;;;2.70;;
5688;SDS011;2869;50.432;8.680;2023-03-23T04:37:23;2.90;;;2.60;;
5688;SDS011;2869;50.432;8.680;2023-03-23T04:39:53;3.57;;;2.90;;
5688;SDS011;2869;50.432;8.680;2023-03-23T04:42:25;3.20;;;2.83;;
5688;SDS011;2869;50.432;8.680;2023-03-23T04:44:57;3.20;;;3.00;;
5688;SDS011;2869;50.432;8.680;2023-03-23T04:47:25;4.10;;;3.00;;
5688;SDS011;2869;50.432;8.680;2023-03-23T04:49:54;3.83;;;2.80;;
5688;SDS011;2869;50.432;8.680;2023-03-23T04:52:21;2.63;;;2.43;;
5688;SDS011;2869;50.432;8.680;2023-03-23T04:54:49;4.30;;;2.40;;
5688;SDS011;2869;50.432;8.680;2023-03-23T04:57:16;3.10;;;2.90;;
5688;SDS011;2869;50.432;8.680;2023-03-23T04:59:43;2.67;;;2.20;;
5688;SDS011;2869;50.432;8.680;2023-03-23T05:02:11;3.20;;;2.70;;
5688;SDS011;2869;50.432;8.680;2023-03-23T05:04:38;3.30;;;2.60;;
5688;SDS011;2869;50.432;8.680;2023-03-23T05:07:05;2.60;;;2.40;;
5688;SDS011;2869;50.432;8.680;2023-03-23T05:09:32;3.40;;;2.40;;
5688;SDS011;2869;50.432;8.680;2023-03-23T05:12:03;4.00;;;2.50;;
5688;SDS011;2869;50.432;8.680;2023-03-23T05:14:30;2.63;;;2.43;;
5688;SDS011;2869;50.432;8.680;2023-03-23T05:16:57;2.50;;;2.30;;
5688;SDS011;2869;50.432;8.680;2023-03-23T05:19:24;2.70;;;2.23;;
5688;SDS011;2869;50.432;8.680;2023-03-23T05:21:52;3.30;;;2.53;;
5688;SDS011;2869;50.432;8.680;2023-03-23T05:24:19;2.50;;;2.30;;
5688;SDS011;2869;50.432;8.680;2023-03-23T05:26:46;3.40;;;2.47;;
5688;SDS011;2869;50.432;8.680;2023-03-23T05:29:17;5.60;;;2.50;;
5688;SDS011;2869;50.432;8.680;2023-03-23T05:31:43;3.20;;;2.90;;
5688;SDS011;2869;50.432;8.680;2023-03-23T05:34:11;3.00;;;2.70;;
5688;SDS011;2869;50.432;8.680;2023-03-23T05:36:39;2.83;;;2.50;;
5688;SDS011;2869;50.432;8.680;2023-03-23T05:39:05;3.00;;;2.70;;
5688;SDS011;2869;50.432;8.680;2023-03-23T05:41:33;6.20;;;2.70;;
5688;SDS011;2869;50.432;8.680;2023-03-23T05:43:59;3.30;;;3.00;;
5688;SDS011;2869;50.432;8.680;2023-03-23T05:46:26;8.77;;;2.90;;
5688;SDS011;2869;50.432;8.680;2023-03-23T05:48:53;3.20;;;2.90;;
5688;SDS011;2869;50.432;8.680;2023-03-23T05:51:20;3.40;;;3.10;;
5688;SDS011;2869;50.432;8.680;2023-03-23T05:53:48;4.40;;;3.10;;
5688;SDS011;2869;50.432;8.680;2023-03-23T05:56:15;2.97;;;2.77;;
5688;SDS011;2869;50.432;8.680;2023-03-23T05:58:41;6.60;;;2.57;;
5688;SDS011;2869;50.432;8.680;2023-03-23T06:01:08;3.40;;;2.70;;
5688;SDS011;2869;50.432;8.680;2023-03-23T06:03:38;3.00;;;2.63;;
5688;SDS011;2869;50.432;8.680;2023-03-23T06:06:05;2.97;;;2.67;;
5688;SDS011;2869;50.432;8.680;2023-03-23T06:08:33;2.47;;;2.37;;
5688;SDS011;2869;50.432;8.680;2023-03-23T06:11:03;4.97;;;2.70;;
5688;SDS011;2869;50.432;8.680;2023-03-23T06:13:31;2.67;;;2.43;;
5688;SDS011;2869;50.432;8.680;2023-03-23T06:15:57;3.03;;;2.77;;
5688;SDS011;2869;50.432;8.680;2023-03-23T06:18:24;2.80;;;2.60;;
5688;SDS011;2869;50.432;8.680;2023-03-23T06:20:51;2.70;;;2.50;;
5688;SDS011;2869;50.432;8.680;2023-03-23T06:23:19;4.73;;;2.83;;
5688;SDS011;2869;50.432;8.680;2023-03-23T06:25:45;4.93;;;2.67;;
5688;SDS011;2869;50.432;8.680;2023-03-23T06:28:13;2.77;;;2.57;;
5688;SDS011;2869;50.432;8.680;2023-03-23T06:30:40;3.00;;;2.70;;
5688;SDS011;2869;50.432;8.680;2023-03-23T06:33:07;6.13;;;3.53;;
5688;SDS011;2869;50.432;8.680;2023-03-23T06:35:34;2.77;;;2.57;;
5688;SDS011;2869;50.432;8.680;2023-03-23T06:38:01;5.17;;;2.67;;
5688;SDS011;2869;50.432;8.680;2023-03-23T06:40:28;2.73;;;2.53;;
5688;SDS011;2869;50.432;8.680;2023-03-23T06:42:56;3.40;;;2.53;;
5688;SDS011;2869;50.432;8.680;2023-03-23T06:45:25;2.60;;;2.40;;
5688;SDS011;2869;50.432;8.680;2023-03-23T06:47:52;3.83;;;2.80;;
5688;SDS011;2869;50.432;8.680;2023-03-23T06:50:18;4.50;;;2.10;;
5688;SDS011;2869;50.432;8.680;2023-03-23T06:52:45;3.70;;;2.30;;
5688;SDS011;2869;50.432;8.680;2023-03-23T06:55:13;2.80;;;2.60;;
5688;SDS011;2869;50.432;8.680;2023-03-23T06:57:40;3.77;;;2.47;;
5688;SDS011;2869;50.432;8.680;2023-03-23T07:00:08;2.50;;;2.30;;
5688;SDS011;2869;50.432;8.680;2023-03-23T07:02:39;2.93;;;2.73;;
5688;SDS011;2869;50.432;8.680;2023-03-23T07:05:07;3.83;;;3.00;;
5688;SDS011;2869;50.432;8.680;2023-03-23T07:07:34;5.77;;;2.60;;
5688;SDS011;2869;50.432;8.680;2023-03-23T07:10:01;2.60;;;2.40;;
5688;SDS011;2869;50.432;8.680;2023-03-23T07:12:28;2.53;;;2.13;;
5688;SDS011;2869;50.432;8.680;2023-03-23T07:14:55;3.50;;;2.50;;
5688;SDS011;2869;50.432;8.680;2023-03-23T07:17:21;6.03;;;2.30;;
5688;SDS011;2869;50.432;8.680;2023-03-23T07:19:50;2.33;;;2.23;;
5688;SDS011;2869;50.432;8.680;2023-03-23T07:22:16;2.67;;;2.47;;
5688;SDS011;2869;50.432;8.680;2023-03-23T07:24:43;2.73;;;2.30;;
5688;SDS011;2869;50.432;8.680;2023-03-23T07:27:10;4.93;;;2.20;;
5688;SDS011;2869;50.432;8.680;2023-03-23T07:29:36;3.47;;;2.40;;
5688;SDS011;2869;50.432;8.680;2023-03-23T07:32:04;3.50;;;2.50;;
5688;SDS011;2869;50.432;8.680;2023-03-23T07:34:31;3.50;;;2.53;;
5688;SDS011;2869;50.432;8.680;2023-03-23T07:36:59;4.97;;;2.53;;
5688;SDS011;2869;50.432;8.680;2023-03-23T07:39:26;3.43;;;3.10;;
5688;SDS011;2869;50.432;8.680;2023-03-23T07:41:53;3.50;;;2.83;;
5688;SDS011;2869;50.432;8.680;2023-03-23T07:44:19;4.37;;;2.67;;
5688;SDS011;2869;50.432;8.680;2023-03-23T07:46:47;2.73;;;2.50;;
5688;SDS011;2869;50.432;8.680;2023-03-23T07:49:13;3.40;;;2.57;;
5688;SDS011;2869;50.432;8.680;2023-03-23T07:51:40;2.90;;;2.63;;
5688;SDS011;2869;50.432;8.680;2023-03-23T07:54:08;4.10;;;3.03;;
5688;SDS011;2869;50.432;8.680;2023-03-23T07:56:35;2.70;;;2.50;;
5688;SDS011;2869;50.432;8.680;2023-03-23T07:59:05;2.70;;;2.50;;
5688;SDS011;2869;50.432;8.680;2023-03-23T08:01:32;2.53;;;2.33;;
5688;SDS011;2869;50.432;8.680;2023-03-23T08:03:59;2.63;;;2.37;;
5688;SDS011;2869;50.432;8.680;2023-03-23T08:06:27;5.33;;;2.67;;
5688;SDS011;2869;50.432;8.680;2023-03-23T08:08:54;5.40;;;2.57;;
5688;SDS011;2869;50.432;8.680;2023-03-23T08:11:23;3.73;;;2.77;;
5688;SDS011;2869;50.432;8.680;2023-03-23T08:13:49;2.93;;;2.73;;
5688;SDS011;2869;50.432;8.680;2023-03-23T08:16:17;3.03;;;2.30;;
5688;SDS011;2869;50.432;8.680;2023-03-23T08:18:44;2.50;;;2.30;;
5688;SDS011;2869;50.432;8.680;2023-03-23T08:21:12;3.20;;;2.80;;
5688;SDS011;2869;50.432;8.680;2023-03-23T08:23:39;2.40;;;2.20;;
5688;SDS011;2869;50.432;8.680;2023-03-23T08:26:06;3.70;;;2.70;;
5688;SDS011;2869;50.432;8.680;2023-03-23T08:28:34;5.43;;;2.50;;
5688;SDS011;2869;50.432;8.680;2023-03-23T08:31:05;2.50;;;2.30;;
5688;SDS011;2869;50.432;8.680;2023-03-23T08:33:33;3.30;;;2.40;;
5688;SDS011;2869;50.432;8.680;2023-03-23T08:36:00;3.23;;;2.60;;
5688;SDS011;2869;50.432;8.680;2023-03-23T08:38:28;5.10;;;3.17;;
5688;SDS011;2869;50.432;8.680;2023-03-23T08:40:56;4.90;;;2.40;;
5688;SDS011;2869;50.432;8.680;2023-03-23T08:43:24;2.60;;;2.10;;
5688;SDS011;2869;50.432;8.680;2023-03-23T08:45:51;2.90;;;2.30;;
5688;SDS011;2869;50.432;8.680;2023-03-23T08:48:19;2.90;;;2.60;;
5688;SDS011;2869;50.432;8.680;2023-03-23T08:50:45;2.90;;;2.60;;
5688;SDS011;2869;50.432;8.680;2023-03-23T08:53:12;5.80;;;2.57;;
5688;SDS011;2869;50.432;8.680;2023-03-23T08:55:39;2.40;;;2.20;;
5688;SDS011;2869;50.432;8.680;2023-03-23T08:58:06;2.73;;;2.50;;
5688;SDS011;2869;50.432;8.680;2023-03-23T09:00:33;2.80;;;2.37;;
5688;SDS011;2869;50.432;8.680;2023-03-23T09:03:01;2.70;;;2.50;;
5688;SDS011;2869;50.432;8.680;2023-03-23T09:05:29;3.30;;;2.67;;
5688;SDS011;2869;50.432;8.680;2023-03-23T09:07:57;2.30;;;2.10;;
5688;SDS011;2869;50.432;8.680;2023-03-23T09:10:24;2.30;;;2.20;;
5688;SDS011;2869;50.432;8.680;2023-03-23T09:12:52;3.73;;;2.47;;
5688;SDS011;2869;50.432;8.680;2023-03-23T09:15:20;2.70;;;2.00;;
5688;SDS011;2869;50.432;8.680;2023-03-23T09:17:48;3.50;;;1.97;;
5688;SDS011;2869;50.432;8.680;2023-03-23T09:20:19;2.80;;;2.60;;
5688;SDS011;2869;50.432;8.680;2023-03-23T09:22:48;3.03;;;2.57;;
5688;SDS011;2869;50.432;8.680;2023-03-23T09:25:17;2.40;;;2.20;;
5688;SDS011;2869;50.432;8.680;2023-03-23T09:27:47;3.43;;;3.13;;
5688;SDS011;2869;50.432;8.680;2023-03-23T09:30:17;3.30;;;2.67;;
5688;SDS011;2869;50.432;8.680;2023-03-23T09:32:44;2.83;;;2.63;;
5688;SDS011;2869;50.432;8.680;2023-03-23T09:35:13;2.50;;;2.30;;
5688;SDS011;2869;50.432;8.680;2023-03-23T09:37:43;2.63;;;2.43;;
5688;SDS011;2869;50.432;8.680;2023-03-23T09:40:11;6.50;;;2.67;;
5688;SDS011;2869;50.432;8.680;2023-03-23T09:42:44;2.50;;;2.30;;
5688;SDS011;2869;50.432;8.680;2023-03-23T09:45:20;2.60;;;2.40;;
5688;SDS011;2869;50.432;8.680;2023-03-23T09:48:00;3.13;;;2.83;;
5688;SDS011;2869;50.432;8.680;2023-03-23T09:50:40;3.43;;;2.83;;
5688;SDS011;2869;50.432;8.680;2023-03-23T09:53:13;4.23;;;2.70;;
5688;SDS011;2869;50.432;8.680;2023-03-23T09:55:43;2.93;;;2.73;;
5688;SDS011;2869;50.432;8.680;2023-03-23T09:58:15;3.43;;;2.60;;
5688;SDS011;2869;50.432;8.680;2023-03-23T10:00:51;3.80;;;3.40;;
5688;SDS011;2869;50.432;8.680;2023-03-23T10:03:24;3.50;;;3.17;;
5688;SDS011;2869;50.432;8.680;2023-03-23T10:05:53;4.30;;;2.93;;
5688;SDS011;2869;50.432;8.680;2023-03-23T10:08:23;5.17;;;2.57;;
5688;SDS011;2869;50.432;8.680;2023-03-23T10:10:56;2.60;;;2.40;;
5688;SDS011;2869;50.432;8.680;2023-03-23T10:13:45;2.63;;;2.43;;
5688;SDS011;2869;50.432;8.680;2023-03-23T10:16:33;3.20;;;2.80;;
5688;SDS011;2869;50.432;8.680;2023-03-23T10:19:07;3.10;;;2.80;;
5688;SDS011;2869;50.432;8.680;2023-03-23T10:21:38;3.13;;;2.93;;
5688;SDS011;2869;50.432;8.680;2023-03-23T10:24:10;2.80;;;2.60;;
5688;SDS011;2869;50.432;8.680;2023-03-23T10:26:43;3.07;;;2.77;;
5688;SDS011;2869;50.432;8.680;2023-03-23T10:29:17;3.77;;;3.00;;
5688;SDS011;2869;50.432;8.680;2023-03-23T10:31:49;3.67;;;3.13;;
5688;SDS011;2869;50.432;8.680;2023-03-23T10:34:20;2.77;;;2.57;;
5688;SDS011;2869;50.432;8.680;2023-03-23T10:36:52;3.53;;;2.77;;
5688;SDS011;2869;50.432;8.680;2023-03-23T10:39:27;2.77;;;2.57;;
5688;SDS011;2869;50.432;8.680;2023-03-23T10:41:59;2.60;;;2.40;;
5688;SDS011;2869;50.432;8.680;2023-03-23T10:44:31;3.80;;;2.60;;
5688;SDS011;2869;50.432;8.680;2023-03-23T10:47:00;2.20;;;2.00;;
5688;SDS011;2869;50.432;8.680;2023-03-23T10:49:30;2.30;;;2.10;;
5688;SDS011;2869;50.432;8.680;2023-03-23T10:52:05;4.20;;;2.03;;
5688;SDS011;2869;50.432;8.680;2023-03-23T10:54:46;2.97;;;1.90;;
5688;SDS011;2869;50.432;8.680;2023-03-23T10:57:23;2.67;;;2.47;;
5688;SDS011;2869;50.432;8.680;2023-03-23T10:59:57;5.23;;;2.47;;
5688;SDS011;2869;50.432;8.680;2023-03-23T11:02:24;2.20;;;2.00;;
5688;SDS011;2869;50.432;8.680;2023-03-23T11:04:56;4.10;;;2.20;;
5688;SDS011;2869;50.432;8.680;2023-03-23T11:07:28;2.30;;;1.93;;
5688;SDS011;2869;50.432;8.680;2023-03-23T11:10:05;2.50;;;1.97;;
5688;SDS011;2869;50.432;8.680;2023-03-23T11:12:43;4.63;;;1.53;;
5688;SDS011;2869;50.432;8.680;2023-03-23T11:15:16;2.10;;;1.83;;
5688;SDS011;2869;50.432;8.680;2023-03-23T11:17:57;1.73;;;1.50;;
5688;SDS011;2869;50.432;8.680;2023-03-23T11:20:26;2.80;;;2.00;;
5688;SDS011;2869;50.432;8.680;2023-03-23T11:22:54;2.63;;;1.50;;
5688;SDS011;2869;50.432;8.680;2023-03-23T11:25:23;1.83;;;1.73;;
5688;SDS011;2869;50.432;8.680;2023-03-23T11:27:51;2.43;;;1.80;;
5688;SDS011;2869;50.432;8.680;2023-03-23T11:30:20;2.67;;;2.13;;
5688;SDS011;2869;50.432;8.680;2023-03-23T11:32:52;1.87;;;1.77;;
5688;SDS011;2869;50.432;8.680;2023-03-23T11:35:21;6.50;;;1.80;;
5688;SDS011;2869;50.432;8.680;2023-03-23T11:37:50;3.73;;;1.87;;
5688;SDS011;2869;50.432;8.680;2023-03-23T11:40:19;1.80;;;1.60;;
5688;SDS011;2869;50.432;8.680;2023-03-23T11:42:49;1.73;;;1.63;;
5688;SDS011;2869;50.432;8.680;2023-03-23T11:45:25;3.70;;;1.50;;
5688;SDS011;2869;50.432;8.680;2023-03-23T11:48:01;5.77;;;1.70;;
5688;SDS011;2869;50.432;8.680;2023-03-23T11:50:43;1.70;;;1.60;;
5688;SDS011;2869;50.432;8.680;2023-03-23T11:53:15;2.87;;;1.60;;
5688;SDS011;2869;50.432;8.680;2023-03-23T11:55:52;2.20;;;2.00;;
5688;SDS011;2869;50.432;8.680;2023-03-23T11:58:25;1.80;;;1.50;;
5688;SDS011;2869;50.432;8.680;2023-03-23T12:00:58;4.67;;;2.00;;
5688;SDS011;2869;50.432;8.680;2023-03-23T12:03:36;1.83;;;1.73;;
5688;SDS011;2869;50.432;8.680;2023-03-23T12:06:15;3.53;;;1.60;;
5688;SDS011;2869;50.432;8.680;2023-03-23T12:08:53;2.03;;;1.83;;
5688;SDS011;2869;50.432;8.680;2023-03-23T12:11:32;2.70;;;1.80;;
5688;SDS011;2869;50.432;8.680;2023-03-23T12:14:11;2.40;;;1.80;;
5688;SDS011;2869;50.432;8.680;2023-03-23T12:16:47;1.60;;;1.50;;
5688;SDS011;2869;50.432;8.680;2023-03-23T12:19:27;6.70;;;2.20;;
5688;SDS011;2869;50.432;8.680;2023-03-23T12:22:01;1.43;;;1.33;;
5688;SDS011;2869;50.432;8.680;2023-03-23T12:24:42;1.67;;;1.40;;
5688;SDS011;2869;50.432;8.680;2023-03-23T12:27:18;1.90;;;1.80;;
5688;SDS011;2869;50.432;8.680;2023-03-23T12:29:55;3.10;;;1.73;;
5688;SDS011;2869;50.432;8.680;2023-03-23T12:32:42;5.13;;;1.97;;
5688;SDS011;2869;50.432;8.680;2023-03-23T12:35:25;2.03;;;1.30;;
5688;SDS011;2869;50.432;8.680;2023-03-23T12:38:03;1.60;;;1.50;;
5688;SDS011;2869;50.432;8.680;2023-03-23T12:40:44;1.67;;;1.30;;
5688;SDS011;2869;50.432;8.680;2023-03-23T12:43:19;1.30;;;1.20;;
5688;SDS011;2869;50.432;8.680;2023-03-23T12:45:58;1.33;;;1.23;;
5688;SDS011;2869;50.432;8.680;2023-03-23T12:48:40;1.50;;;1.40;;
5688;SDS011;2869;50.432;8.680;2023-03-23T12:51:14;1.70;;;1.40;;
5688;SDS011;2869;50.432;8.680;2023-03-23T12:53:49;1.50;;;1.40;;
5688;SDS011;2869;50.432;8.680;2023-03-23T12:56:22;1.93;;;1.20;;
5688;SDS011;2869;50.432;8.680;2023-03-23T12:58:56;4.03;;;1.40;;
5688;SDS011;2869;50.432;8.680;2023-03-23T13:01:29;2.67;;;1.50;;
5688;SDS011;2869;50.432;8.680;2023-03-23T13:04:01;1.80;;;1.50;;
5688;SDS011;2869;50.432;8.680;2023-03-23T13:06:32;1.50;;;1.40;;
5688;SDS011;2869;50.432;8.680;2023-03-23T13:09:02;1.97;;;1.33;;
5688;SDS011;2869;50.432;8.680;2023-03-23T13:11:32;1.63;;;1.53;;
5688;SDS011;2869;50.432;8.680;2023-03-23T13:14:03;1.70;;;1.60;;
5688;SDS011;2869;50.432;8.680;2023-03-23T13:16:41;2.30;;;1.40;;
5688;SDS011;2869;50.432;8.680;2023-03-23T13:19:14;2.37;;;1.70;;
5688;SDS011;2869;50.432;8.680;2023-03-23T13:21:46;2.13;;;1.47;;
5688;SDS011;2869;50.432;8.680;2023-03-23T13:24:18;1.70;;;1.60;;
5688;SDS011;2869;50.432;8.680;2023-03-23T13:26:50;1.80;;;1.50;;
5688;SDS011;2869;50.432;8.680;2023-03-23T13:29:18;2.40;;;1.30;;
5688;SDS011;2869;50.432;8.680;2023-03-23T13:31:50;1.33;;;1.23;;
5688;SDS011;2869;50.432;8.680;2023-03-23T13:34:18;1.40;;;1.30;;
5688;SDS011;2869;50.432;8.680;2023-03-23T13:36:52;2.40;;;1.60;;
5688;SDS011;2869;50.432;8.680;2023-03-23T13:39:21;1.63;;;1.53;;
5688;SDS011;2869;50.432;8.680;2023-03-23T13:41:58;2.23;;;1.37;;
5688;SDS011;2869;50.432;8.680;2023-03-23T13:44:40;1.53;;;1.40;;
5688;SDS011;2869;50.432;8.680;2023-03-23T13:47:21;2.80;;;1.60;;
5688;SDS011;2869;50.432;8.680;2023-03-23T13:49:55;1.83;;;1.50;;
5688;SDS011;2869;50.432;8.680;2023-03-23T13:52:23;1.70;;;1.60;;
5688;SDS011;2869;50.432;8.680;2023-03-23T13:55:12;1.60;;;1.50;;
5688;SDS011;2869;50.432;8.680;2023-03-23T13:57:50;9.30;;;1.60;;
5688;SDS011;2869;50.432;8.680;2023-03-23T14:03:15;2.10;;;1.53;;
5688;SDS011;2869;50.432;8.680;2023-03-23T14:05:45;1.53;;;1.43;;
5688;SDS011;2869;50.432;8.680;2023-03-23T14:08:21;7.27;;;1.60;;
5688;SDS011;2869;50.432;8.680;2023-03-23T14:10:51;1.60;;;1.30;;
5688;SDS011;2869;50.432;8.680;2023-03-23T14:13:21;1.53;;;1.33;;
5688;SDS011;2869;50.432;8.680;2023-03-23T14:15:54;1.77;;;1.40;;
5688;SDS011;2869;50.432;8.680;2023-03-23T14:18:25;1.70;;;1.37;;
5688;SDS011;2869;50.432;8.680;2023-03-23T14:20:56;1.40;;;1.27;;
5688;SDS011;2869;50.432;8.680;2023-03-23T14:23:23;1.40;;;1.30;;
5688;SDS011;2869;50.432;8.680;2023-03-23T14:25:58;1.60;;;1.50;;
5688;SDS011;2869;50.432;8.680;2023-03-23T14:28:32;1.50;;;1.30;;
5688;SDS011;2869;50.432;8.680;2023-03-23T14:31:03;1.70;;;1.60;;
5688;SDS011;2869;50.432;8.680;2023-03-23T14:33:32;1.83;;;1.50;;
5688;SDS011;2869;50.432;8.680;2023-03-23T14:35:59;1.73;;;1.30;;
5688;SDS011;2869;50.432;8.680;2023-03-23T14:38:26;2.33;;;1.50;;
5688;SDS011;2869;50.432;8.680;2023-03-23T14:40:59;1.70;;;1.50;;
5688;SDS011;2869;50.432;8.680;2023-03-23T14:43:28;2.40;;;1.50;;
5688;SDS011;2869;50.432;8.680;2023-03-23T14:45:56;1.37;;;1.27;;
5688;SDS011;2869;50.432;8.680;2023-03-23T14:48:25;1.50;;;1.40;;
5688;SDS011;2869;50.432;8.680;2023-03-23T14:50:57;3.27;;;1.77;;
5688;SDS011;2869;50.432;8.680;2023-03-23T14:53:29;1.87;;;1.20;;
5688;SDS011;2869;50.432;8.680;2023-03-23T14:55:59;2.23;;;1.60;;
5688;SDS011;2869;50.432;8.680;2023-03-23T14:58:27;1.60;;;1.50;;
5688;SDS011;2869;50.432;8.680;2023-03-23T15:00:55;1.37;;;1.27;;
5688;SDS011;2869;50.432;8.680;2023-03-23T15:03:24;1.60;;;1.50;;
5688;SDS011;2869;50.432;8.680;2023-03-23T15:05:53;1.50;;;1.40;;
5688;SDS011;2869;50.432;8.680;2023-03-23T15:08:24;1.30;;;1.20;;
5688;SDS011;2869;50.432;8.680;2023-03-23T15:10:57;2.00;;;1.80;;
5688;SDS011;2869;50.432;8.680;2023-03-23T15:13:29;2.03;;;1.73;;
5688;SDS011;2869;50.432;8.680;2023-03-23T15:16:06;1.97;;;1.77;;
5688;SDS011;2869;50.432;8.680;2023-03-23T15:18:39;1.77;;;1.67;;
5688;SDS011;2869;50.432;8.680;2023-03-23T15:21:11;1.80;;;1.70;;
5688;SDS011;2869;50.432;8.680;2023-03-23T15:23:49;3.63;;;1.83;;
5688;SDS011;2869;50.432;8.680;2023-03-23T15:26:23;3.40;;;1.73;;
5688;SDS011;2869;50.432;8.680;2023-03-23T15:29:00;2.10;;;1.90;;
5688;SDS011;2869;50.432;8.680;2023-03-23T15:31:29;1.80;;;1.70;;
5688;SDS011;2869;50.432;8.680;2023-03-23T15:33:57;1.70;;;1.60;;
5688;SDS011;2869;50.432;8.680;2023-03-23T15:36:31;1.90;;;1.80;;
5688;SDS011;2869;50.432;8.680;2023-03-23T15:39:01;2.57;;;1.80;;
5688;SDS011;2869;50.432;8.680;2023-03-23T15:41:29;1.67;;;1.57;;